Terminal Aerodrome Forecast
Issued by NWS Shreveport, LA

Home | Current Version | Previous Version | Text Only | Print | Product List | Glossary On
Versions: 1 2 3 4 5 6 7 8 9 10 11 12 13 14 15
000
FTUS44 KSHV 031100 RRA
TAFTXK
TAF
KTXK 031142Z 0312/0412 11004KT 1/4SM FG OVC002
      TEMPO 0312/0314 3SM BR
     FM031400 17005KT P6SM BKN015
     FM031700 20008KT P6SM SCT020
      TEMPO 0317/0320 BKN015
     FM032300 16006KT P6SM VCTS BKN025CB
     FM040700 19004KT 5SM -RA VCTS BKN009CB=

USA.gov is the U.S. government's official web portal to all federal, state and local government web resources and services.